sensor_id;sensor_type;location;lat;lon;timestamp;pressure;altitude;pressure_sealevel;temperature;humidity
40918;BME280;26644;50.248;19.032;2023-05-08T00:03:09;99066.38;;;5.58;70.56
40918;BME280;26644;50.248;19.032;2023-05-08T00:06:14;99071.13;;;5.63;70.32
40918;BME280;26644;50.248;19.032;2023-05-08T00:09:18;99071.25;;;5.68;70.12
40918;BME280;26644;50.248;19.032;2023-05-08T00:12:24;99077.91;;;5.72;70.48
40918;BME280;26644;50.248;19.032;2023-05-08T00:15:28;99068.91;;;5.71;70.28
40918;BME280;26644;50.248;19.032;2023-05-08T00:18:36;99073.22;;;5.79;70.08
40918;BME280;26644;50.248;19.032;2023-05-08T00:21:40;99064.91;;;5.74;70.10
40918;BME280;26644;50.248;19.032;2023-05-08T00:24:46;99067.72;;;5.67;70.16
40918;BME280;26644;50.248;19.032;2023-05-08T00:27:50;99068.53;;;5.68;69.97
40918;BME280;26644;50.248;19.032;2023-05-08T00:30:58;99076.22;;;5.59;69.67
40918;BME280;26644;50.248;19.032;2023-05-08T00:34:06;99072.16;;;5.50;69.74
40918;BME280;26644;50.248;19.032;2023-05-08T00:37:11;99069.78;;;5.53;69.70
40918;BME280;26644;50.248;19.032;2023-05-08T00:40:16;99071.53;;;5.48;69.72
40918;BME280;26644;50.248;19.032;2023-05-08T00:43:21;99073.22;;;5.49;69.76
40918;BME280;26644;50.248;19.032;2023-05-08T00:46:29;99068.13;;;5.52;69.44
40918;BME280;26644;50.248;19.032;2023-05-08T00:49:37;99065.47;;;5.45;69.21
40918;BME280;26644;50.248;19.032;2023-05-08T00:52:42;99061.25;;;5.50;68.97
40918;BME280;26644;50.248;19.032;2023-05-08T00:55:48;99076.91;;;5.54;68.84
40918;BME280;26644;50.248;19.032;2023-05-08T00:58:54;99075.22;;;5.53;68.28
40918;BME280;26644;50.248;19.032;2023-05-08T01:02:00;99071.34;;;5.61;68.10
40918;BME280;26644;50.248;19.032;2023-05-08T01:05:08;99071.59;;;5.59;67.12
40918;BME280;26644;50.248;19.032;2023-05-08T01:08:14;99075.66;;;5.69;66.83
40918;BME280;26644;50.248;19.032;2023-05-08T01:11:25;99079.56;;;5.73;66.51
40918;BME280;26644;50.248;19.032;2023-05-08T01:14:51;99088.72;;;5.78;66.40
40918;BME280;26644;50.248;19.032;2023-05-08T01:18:12;99077.22;;;5.76;65.82
40918;BME280;26644;50.248;19.032;2023-05-08T01:21:33;99082.09;;;5.86;65.73
40918;BME280;26644;50.248;19.032;2023-05-08T01:29:17;99100.34;;;5.86;65.47
40918;BME280;26644;50.248;19.032;2023-05-08T01:32:49;99094.16;;;5.78;65.65
40918;BME280;26644;50.248;19.032;2023-05-08T01:36:10;99083.22;;;5.67;66.06
40918;BME280;26644;50.248;19.032;2023-05-08T01:39:36;99099.47;;;5.73;66.21
40918;BME280;26644;50.248;19.032;2023-05-08T01:42:50;99099.47;;;5.73;66.61
40918;BME280;26644;50.248;19.032;2023-05-08T01:46:09;99102.53;;;5.65;66.90
40918;BME280;26644;50.248;19.032;2023-05-08T01:49:26;99091.72;;;5.58;67.17
40918;BME280;26644;50.248;19.032;2023-05-08T01:52:43;99088.63;;;5.55;67.71
40918;BME280;26644;50.248;19.032;2023-05-08T01:55:56;99099.31;;;5.56;68.08
40918;BME280;26644;50.248;19.032;2023-05-08T01:59:09;99101.28;;;5.49;68.48
40918;BME280;26644;50.248;19.032;2023-05-08T02:02:18;99098.78;;;5.48;68.29
40918;BME280;26644;50.248;19.032;2023-05-08T02:05:30;99100.13;;;5.57;68.47
40918;BME280;26644;50.248;19.032;2023-05-08T02:08:37;99094.81;;;5.62;68.55
40918;BME280;26644;50.248;19.032;2023-05-08T02:11:45;99097.69;;;5.67;68.73
40918;BME280;26644;50.248;19.032;2023-05-08T02:14:55;99087.59;;;5.68;68.88
40918;BME280;26644;50.248;19.032;2023-05-08T02:18:04;99103.03;;;5.74;69.03
40918;BME280;26644;50.248;19.032;2023-05-08T02:21:14;99108.72;;;5.72;69.54
40918;BME280;26644;50.248;19.032;2023-05-08T02:24:23;99105.06;;;5.78;69.40
40918;BME280;26644;50.248;19.032;2023-05-08T02:27:30;99098.50;;;5.68;69.93
40918;BME280;26644;50.248;19.032;2023-05-08T02:30:38;99103.41;;;5.77;69.78
40918;BME280;26644;50.248;19.032;2023-05-08T02:33:48;99093.97;;;5.61;69.64
40918;BME280;26644;50.248;19.032;2023-05-08T02:36:59;99112.13;;;5.68;69.92
40918;BME280;26644;50.248;19.032;2023-05-08T02:40:09;99100.03;;;5.64;69.44
40918;BME280;26644;50.248;19.032;2023-05-08T02:43:16;99107.16;;;5.65;69.29
40918;BME280;26644;50.248;19.032;2023-05-08T02:46:28;99115.03;;;5.54;68.65
40918;BME280;26644;50.248;19.032;2023-05-08T02:49:50;99115.75;;;5.50;68.81
40918;BME280;26644;50.248;19.032;2023-05-08T02:53:06;99110.81;;;5.40;68.44
40918;BME280;26644;50.248;19.032;2023-05-08T02:56:27;99126.56;;;5.38;68.38
40918;BME280;26644;50.248;19.032;2023-05-08T02:59:43;99116.97;;;5.35;68.24
40918;BME280;26644;50.248;19.032;2023-05-08T03:03:00;99115.75;;;5.31;68.01
40918;BME280;26644;50.248;19.032;2023-05-08T03:06:12;99116.59;;;5.32;67.55
40918;BME280;26644;50.248;19.032;2023-05-08T03:09:37;99100.25;;;5.32;67.43
40918;BME280;26644;50.248;19.032;2023-05-08T03:12:48;99117.94;;;5.41;67.32
40918;BME280;26644;50.248;19.032;2023-05-08T03:15:59;99110.00;;;5.39;67.26
40918;BME280;26644;50.248;19.032;2023-05-08T03:19:16;99121.38;;;5.48;66.83
40918;BME280;26644;50.248;19.032;2023-05-08T03:22:28;99115.78;;;5.43;66.51
40918;BME280;26644;50.248;19.032;2023-05-08T03:25:41;99127.69;;;5.49;66.57
40918;BME280;26644;50.248;19.032;2023-05-08T03:28:50;99133.66;;;5.39;66.57
40918;BME280;26644;50.248;19.032;2023-05-08T03:32:01;99129.50;;;5.18;66.91
40918;BME280;26644;50.248;19.032;2023-05-08T03:35:09;99123.09;;;5.31;66.96
40918;BME280;26644;50.248;19.032;2023-05-08T03:38:15;99126.84;;;5.30;66.81
40918;BME280;26644;50.248;19.032;2023-05-08T03:41:24;99130.03;;;5.26;66.70
40918;BME280;26644;50.248;19.032;2023-05-08T03:44:31;99121.56;;;5.16;66.68
40918;BME280;26644;50.248;19.032;2023-05-08T03:47:38;99121.13;;;5.19;67.19
40918;BME280;26644;50.248;19.032;2023-05-08T03:50:44;99125.88;;;5.24;66.88
40918;BME280;26644;50.248;19.032;2023-05-08T03:53:50;99121.06;;;5.26;67.04
40918;BME280;26644;50.248;19.032;2023-05-08T03:56:58;99125.22;;;5.28;66.88
40918;BME280;26644;50.248;19.032;2023-05-08T04:00:08;99123.09;;;5.31;67.03
40918;BME280;26644;50.248;19.032;2023-05-08T04:03:29;99136.34;;;5.57;66.63
40918;BME280;26644;50.248;19.032;2023-05-08T04:06:50;99128.00;;;6.01;65.37
40918;BME280;26644;50.248;19.032;2023-05-08T04:10:12;99133.19;;;6.45;64.26
40918;BME280;26644;50.248;19.032;2023-05-08T04:13:28;99147.72;;;6.93;62.38
40918;BME280;26644;50.248;19.032;2023-05-08T04:16:39;99151.84;;;7.19;60.93
40918;BME280;26644;50.248;19.032;2023-05-08T04:20:04;99158.31;;;7.54;59.95
40918;BME280;26644;50.248;19.032;2023-05-08T04:23:16;99152.56;;;7.79;58.82
40918;BME280;26644;50.248;19.032;2023-05-08T04:26:28;99160.78;;;7.96;57.94
40918;BME280;26644;50.248;19.032;2023-05-08T04:29:37;99168.63;;;8.21;57.81
40918;BME280;26644;50.248;19.032;2023-05-08T04:32:44;99173.72;;;8.30;56.94
40918;BME280;26644;50.248;19.032;2023-05-08T04:35:50;99185.28;;;8.20;56.80
40918;BME280;26644;50.248;19.032;2023-05-08T04:38:56;99187.88;;;8.26;57.58
40918;BME280;26644;50.248;19.032;2023-05-08T04:42:01;99171.00;;;8.30;56.88
40918;BME280;26644;50.248;19.032;2023-05-08T04:45:13;99188.44;;;8.57;55.90
40918;BME280;26644;50.248;19.032;2023-05-08T04:48:18;99198.09;;;8.31;56.09
40918;BME280;26644;50.248;19.032;2023-05-08T04:51:23;99198.06;;;8.14;56.91
40918;BME280;26644;50.248;19.032;2023-05-08T04:54:28;99206.47;;;7.95;57.50
40918;BME280;26644;50.248;19.032;2023-05-08T04:57:33;99206.25;;;7.85;58.04
40918;BME280;26644;50.248;19.032;2023-05-08T05:00:40;99210.25;;;7.54;58.49
40918;BME280;26644;50.248;19.032;2023-05-08T05:03:46;99213.16;;;7.23;59.06
40918;BME280;26644;50.248;19.032;2023-05-08T05:06:50;99212.88;;;7.01;59.79
40918;BME280;26644;50.248;19.032;2023-05-08T05:09:55;99201.31;;;6.64;60.41
40918;BME280;26644;50.248;19.032;2023-05-08T05:13:00;99210.78;;;6.49;60.97
40918;BME280;26644;50.248;19.032;2023-05-08T05:16:08;99220.13;;;6.41;61.85
40918;BME280;26644;50.248;19.032;2023-05-08T05:19:13;99224.59;;;6.36;62.06
40918;BME280;26644;50.248;19.032;2023-05-08T05:22:20;99210.00;;;6.30;61.99
40918;BME280;26644;50.248;19.032;2023-05-08T05:25:25;99214.84;;;6.16;61.90
40918;BME280;26644;50.248;19.032;2023-05-08T05:28:30;99231.53;;;6.20;62.40
40918;BME280;26644;50.248;19.032;2023-05-08T05:31:39;99234.13;;;6.33;62.46
40918;BME280;26644;50.248;19.032;2023-05-08T05:34:45;99232.44;;;6.32;62.62
40918;BME280;26644;50.248;19.032;2023-05-08T05:37:49;99228.03;;;6.31;62.59
40918;BME280;26644;50.248;19.032;2023-05-08T05:40:54;99245.06;;;6.15;62.84
40918;BME280;26644;50.248;19.032;2023-05-08T05:43:59;99241.53;;;5.95;63.49
40918;BME280;26644;50.248;19.032;2023-05-08T05:47:07;99249.56;;;5.90;63.67
40918;BME280;26644;50.248;19.032;2023-05-08T05:50:15;99246.91;;;5.84;63.54
40918;BME280;26644;50.248;19.032;2023-05-08T05:53:22;99251.06;;;5.86;63.52
40918;BME280;26644;50.248;19.032;2023-05-08T05:56:27;99257.00;;;5.65;63.78
40918;BME280;26644;50.248;19.032;2023-05-08T05:59:33;99248.03;;;5.76;64.01
40918;BME280;26644;50.248;19.032;2023-05-08T06:02:41;99259.16;;;5.93;63.27
40918;BME280;26644;50.248;19.032;2023-05-08T06:05:50;99279.16;;;6.05;63.27
40918;BME280;26644;50.248;19.032;2023-05-08T06:08:55;99272.72;;;6.00;63.39
40918;BME280;26644;50.248;19.032;2023-05-08T06:12:00;99274.44;;;6.13;63.41
40918;BME280;26644;50.248;19.032;2023-05-08T06:15:06;99271.41;;;6.21;63.47
40918;BME280;26644;50.248;19.032;2023-05-08T06:18:15;99277.38;;;6.30;63.35
40918;BME280;26644;50.248;19.032;2023-05-08T06:21:20;99277.19;;;6.13;63.53
40918;BME280;26644;50.248;19.032;2023-05-08T06:24:26;99277.41;;;6.11;63.59
40918;BME280;26644;50.248;19.032;2023-05-08T06:27:30;99285.13;;;5.95;64.01
40918;BME280;26644;50.248;19.032;2023-05-08T06:30:35;99293.63;;;6.06;64.41
40918;BME280;26644;50.248;19.032;2023-05-08T06:33:42;99297.16;;;6.06;63.67
40918;BME280;26644;50.248;19.032;2023-05-08T06:36:48;99297.94;;;6.14;63.76
40918;BME280;26644;50.248;19.032;2023-05-08T06:39:52;99286.03;;;6.08;62.73
40918;BME280;26644;50.248;19.032;2023-05-08T06:42:57;99290.97;;;6.18;63.08
40918;BME280;26644;50.248;19.032;2023-05-08T06:46:02;99303.97;;;6.16;62.59
40918;BME280;26644;50.248;19.032;2023-05-08T06:49:10;99285.59;;;6.11;62.63
40918;BME280;26644;50.248;19.032;2023-05-08T06:52:14;99301.34;;;6.39;62.14
40918;BME280;26644;50.248;19.032;2023-05-08T06:55:20;99299.06;;;6.55;61.43
40918;BME280;26644;50.248;19.032;2023-05-08T06:58:24;99299.28;;;6.53;60.91
40918;BME280;26644;50.248;19.032;2023-05-08T07:01:32;99305.81;;;6.52;61.26
40918;BME280;26644;50.248;19.032;2023-05-08T07:04:39;99303.09;;;6.52;60.99
40918;BME280;26644;50.248;19.032;2023-05-08T07:07:45;99290.88;;;6.55;60.61
40918;BME280;26644;50.248;19.032;2023-05-08T07:10:49;99297.44;;;6.66;60.25
40918;BME280;26644;50.248;19.032;2023-05-08T07:13:54;99306.22;;;6.79;60.17
40918;BME280;26644;50.248;19.032;2023-05-08T07:17:02;99311.63;;;6.98;60.08
40918;BME280;26644;50.248;19.032;2023-05-08T07:20:12;99332.13;;;7.19;58.81
40918;BME280;26644;50.248;19.032;2023-05-08T07:23:17;99310.75;;;7.16;58.77
40918;BME280;26644;50.248;19.032;2023-05-08T07:26:22;99317.28;;;7.27;58.78
40918;BME280;26644;50.248;19.032;2023-05-08T07:29:27;99322.53;;;7.52;58.77
40918;BME280;26644;50.248;19.032;2023-05-08T07:32:32;99327.28;;;7.69;57.64
40918;BME280;26644;50.248;19.032;2023-05-08T07:35:42;99323.00;;;7.61;56.01
40918;BME280;26644;50.248;19.032;2023-05-08T07:38:47;99322.41;;;7.71;56.37
40918;BME280;26644;50.248;19.032;2023-05-08T07:41:51;99319.22;;;7.74;56.19
40918;BME280;26644;50.248;19.032;2023-05-08T07:44:57;99330.34;;;7.72;56.31
40918;BME280;26644;50.248;19.032;2023-05-08T07:48:03;99338.53;;;7.96;57.02
40918;BME280;26644;50.248;19.032;2023-05-08T07:51:12;99346.25;;;8.11;56.48
40918;BME280;26644;50.248;19.032;2023-05-08T07:54:16;99336.22;;;8.28;55.30
40918;BME280;26644;50.248;19.032;2023-05-08T07:57:21;99342.53;;;8.17;54.16
40918;BME280;26644;50.248;19.032;2023-05-08T08:00:26;99320.75;;;8.22;54.47
40918;BME280;26644;50.248;19.032;2023-05-08T08:03:32;99336.91;;;8.65;52.57
40918;BME280;26644;50.248;19.032;2023-05-08T08:06:39;99335.44;;;9.71;49.96
40918;BME280;26644;50.248;19.032;2023-05-08T08:09:45;99332.69;;;10.76;48.16
40918;BME280;26644;50.248;19.032;2023-05-08T08:12:49;99347.22;;;11.69;44.85
40918;BME280;26644;50.248;19.032;2023-05-08T08:15:54;99340.84;;;12.01;43.94
40918;BME280;26644;50.248;19.032;2023-05-08T08:18:59;99354.41;;;12.13;43.55
40918;BME280;26644;50.248;19.032;2023-05-08T08:22:07;99347.91;;;12.40;43.27
40918;BME280;26644;50.248;19.032;2023-05-08T08:25:11;99334.91;;;11.82;44.50
40918;BME280;26644;50.248;19.032;2023-05-08T08:28:17;99341.19;;;11.72;44.91
40918;BME280;26644;50.248;19.032;2023-05-08T08:31:21;99350.00;;;11.04;45.94
40918;BME280;26644;50.248;19.032;2023-05-08T08:34:26;99325.69;;;10.19;47.73
40918;BME280;26644;50.248;19.032;2023-05-08T08:37:33;99346.00;;;9.62;49.56
40918;BME280;26644;50.248;19.032;2023-05-08T08:40:39;99354.13;;;9.06;50.68
40918;BME280;26644;50.248;19.032;2023-05-08T08:43:44;99341.28;;;8.77;51.84
40918;BME280;26644;50.248;19.032;2023-05-08T08:46:50;99351.59;;;9.50;50.53
40918;BME280;26644;50.248;19.032;2023-05-08T08:50:01;99340.47;;;9.96;49.66
40918;BME280;26644;50.248;19.032;2023-05-08T08:53:20;99349.28;;;10.42;48.22
40918;BME280;26644;50.248;19.032;2023-05-08T08:56:30;99356.91;;;10.57;47.58
40918;BME280;26644;50.248;19.032;2023-05-08T08:59:37;99351.28;;;10.69;47.54
40918;BME280;26644;50.248;19.032;2023-05-08T09:02:43;99351.47;;;10.63;47.35
40918;BME280;26644;50.248;19.032;2023-05-08T09:05:50;99356.19;;;10.45;47.68
40918;BME280;26644;50.248;19.032;2023-05-08T09:08:57;99365.88;;;10.31;47.83
40918;BME280;26644;50.248;19.032;2023-05-08T09:12:04;99359.84;;;10.28;47.90
40918;BME280;26644;50.248;19.032;2023-05-08T09:15:09;99361.16;;;10.92;47.11
40918;BME280;26644;50.248;19.032;2023-05-08T09:18:15;99359.38;;;11.41;45.97
40918;BME280;26644;50.248;19.032;2023-05-08T09:21:20;99351.38;;;12.15;44.93
40918;BME280;26644;50.248;19.032;2023-05-08T09:24:54;99360.34;;;12.48;43.53
40918;BME280;26644;50.248;19.032;2023-05-08T09:28:14;99354.88;;;12.68;43.13
40918;BME280;26644;50.248;19.032;2023-05-08T09:31:33;99368.75;;;12.99;42.75
40918;BME280;26644;50.248;19.032;2023-05-08T09:34:40;99348.38;;;12.95;42.03
40918;BME280;26644;50.248;19.032;2023-05-08T09:37:45;99356.06;;;12.98;42.10
40918;BME280;26644;50.248;19.032;2023-05-08T09:41:05;99358.63;;;13.36;41.32
40918;BME280;26644;50.248;19.032;2023-05-08T09:44:12;99359.16;;;13.79;40.87
40918;BME280;26644;50.248;19.032;2023-05-08T09:47:18;99348.50;;;14.38;39.37
40918;BME280;26644;50.248;19.032;2023-05-08T09:50:25;99338.25;;;14.99;38.27
40918;BME280;26644;50.248;19.032;2023-05-08T09:53:31;99338.66;;;15.85;36.47
40918;BME280;26644;50.248;19.032;2023-05-08T09:56:40;99355.50;;;15.94;36.24
40918;BME280;26644;50.248;19.032;2023-05-08T09:59:45;99339.53;;;16.10;35.71
40918;BME280;26644;50.248;19.032;2023-05-08T10:02:56;99339.00;;;16.32;35.58
40918;BME280;26644;50.248;19.032;2023-05-08T10:06:11;99330.56;;;16.42;34.44
40918;BME280;26644;50.248;19.032;2023-05-08T10:09:17;99337.88;;;16.33;34.61
40918;BME280;26644;50.248;19.032;2023-05-08T10:12:25;99340.19;;;16.26;34.94
40918;BME280;26644;50.248;19.032;2023-05-08T10:15:33;99344.50;;;15.54;35.49
40918;BME280;26644;50.248;19.032;2023-05-08T10:18:45;99336.41;;;14.89;36.37
40918;BME280;26644;50.248;19.032;2023-05-08T10:21:53;99347.97;;;14.96;36.40
40918;BME280;26644;50.248;19.032;2023-05-08T10:25:02;99347.50;;;14.84;36.11
40918;BME280;26644;50.248;19.032;2023-05-08T10:28:21;99321.66;;;14.99;36.36
40918;BME280;26644;50.248;19.032;2023-05-08T10:31:34;99330.63;;;14.80;36.53
40918;BME280;26644;50.248;19.032;2023-05-08T10:34:48;99335.34;;;15.24;37.19
40918;BME280;26644;50.248;19.032;2023-05-08T10:37:57;99339.78;;;15.55;36.56
40918;BME280;26644;50.248;19.032;2023-05-08T10:41:04;99336.38;;;15.34;35.65
40918;BME280;26644;50.248;19.032;2023-05-08T10:44:12;99339.22;;;14.78;36.89
40918;BME280;26644;50.248;19.032;2023-05-08T10:47:26;99342.38;;;14.56;37.57
40918;BME280;26644;50.248;19.032;2023-05-08T10:50:59;99344.25;;;13.80;38.11
40918;BME280;26644;50.248;19.032;2023-05-08T10:54:17;99333.75;;;13.72;38.71
40918;BME280;26644;50.248;19.032;2023-05-08T10:57:26;99338.47;;;13.56;39.37
40918;BME280;26644;50.248;19.032;2023-05-08T11:04:23;99334.09;;;13.50;39.42
40918;BME280;26644;50.248;19.032;2023-05-08T11:07:29;99321.38;;;13.28;39.50
40918;BME280;26644;50.248;19.032;2023-05-08T11:11:04;99324.34;;;12.90;40.58
40918;BME280;26644;50.248;19.032;2023-05-08T11:14:19;99307.53;;;12.76;41.37
40918;BME280;26644;50.248;19.032;2023-05-08T11:17:28;99313.81;;;12.61;41.12
40918;BME280;26644;50.248;19.032;2023-05-08T11:20:41;99311.34;;;12.65;40.63
40918;BME280;26644;50.248;19.032;2023-05-08T11:23:58;99319.81;;;12.43;40.60
40918;BME280;26644;50.248;19.032;2023-05-08T11:27:14;99333.34;;;12.50;41.30
40918;BME280;26644;50.248;19.032;2023-05-08T11:30:25;99321.28;;;11.98;42.68
40918;BME280;26644;50.248;19.032;2023-05-08T11:33:41;99315.41;;;11.84;43.13
40918;BME280;26644;50.248;19.032;2023-05-08T11:37:00;99321.91;;;11.67;43.53
40918;BME280;26644;50.248;19.032;2023-05-08T11:44:18;99308.41;;;11.66;44.14
40918;BME280;26644;50.248;19.032;2023-05-08T11:47:32;99306.16;;;11.57;43.92
40918;BME280;26644;50.248;19.032;2023-05-08T11:50:44;99296.53;;;11.55;43.67
40918;BME280;26644;50.248;19.032;2023-05-08T11:53:50;99297.28;;;11.50;43.17
40918;BME280;26644;50.248;19.032;2023-05-08T11:56:55;99292.41;;;11.57;42.59
40918;BME280;26644;50.248;19.032;2023-05-08T12:00:03;99298.91;;;11.46;42.42
40918;BME280;26644;50.248;19.032;2023-05-08T12:03:13;99313.25;;;11.48;41.73
40918;BME280;26644;50.248;19.032;2023-05-08T12:06:22;99297.88;;;11.52;41.96
40918;BME280;26644;50.248;19.032;2023-05-08T12:09:27;99296.84;;;11.64;42.14
40918;BME280;26644;50.248;19.032;2023-05-08T12:12:38;99294.97;;;11.69;41.88
40918;BME280;26644;50.248;19.032;2023-05-08T12:15:44;99303.03;;;11.86;41.80
40918;BME280;26644;50.248;19.032;2023-05-08T12:18:51;99308.56;;;11.91;41.30
40918;BME280;26644;50.248;19.032;2023-05-08T12:22:01;99297.00;;;11.89;41.46
40918;BME280;26644;50.248;19.032;2023-05-08T12:25:09;99281.56;;;11.88;41.08
40918;BME280;26644;50.248;19.032;2023-05-08T12:28:14;99287.75;;;12.06;41.38
40918;BME280;26644;50.248;19.032;2023-05-08T12:31:20;99299.13;;;12.25;41.50
40918;BME280;26644;50.248;19.032;2023-05-08T12:34:26;99295.28;;;12.36;41.57
40918;BME280;26644;50.248;19.032;2023-05-08T12:37:34;99290.94;;;12.51;40.93
40918;BME280;26644;50.248;19.032;2023-05-08T12:40:42;99287.63;;;12.43;40.44
40918;BME280;26644;50.248;19.032;2023-05-08T12:43:50;99303.50;;;12.26;40.49
40918;BME280;26644;50.248;19.032;2023-05-08T12:46:56;99297.53;;;11.86;41.32
40918;BME280;26644;50.248;19.032;2023-05-08T12:50:02;99294.34;;;12.00;41.65
40918;BME280;26644;50.248;19.032;2023-05-08T12:53:12;99302.84;;;11.98;40.68
40918;BME280;26644;50.248;19.032;2023-05-08T12:56:21;99305.22;;;11.84;41.32
40918;BME280;26644;50.248;19.032;2023-05-08T12:59:30;99298.34;;;11.87;41.49
40918;BME280;26644;50.248;19.032;2023-05-08T13:02:36;99286.25;;;11.88;41.81
40918;BME280;26644;50.248;19.032;2023-05-08T13:05:43;99297.09;;;12.00;41.91
40918;BME280;26644;50.248;19.032;2023-05-08T13:08:54;99277.38;;;11.75;41.50
40918;BME280;26644;50.248;19.032;2023-05-08T13:11:59;99287.81;;;11.68;41.26
40918;BME280;26644;50.248;19.032;2023-05-08T13:15:06;99290.34;;;11.80;41.74
40918;BME280;26644;50.248;19.032;2023-05-08T13:18:13;99296.88;;;11.69;42.07
40918;BME280;26644;50.248;19.032;2023-05-08T13:21:19;99283.06;;;11.58;42.49
40918;BME280;26644;50.248;19.032;2023-05-08T13:24:26;99282.50;;;11.56;42.59
40918;BME280;26644;50.248;19.032;2023-05-08T13:27:32;99281.28;;;11.42;42.68
40918;BME280;26644;50.248;19.032;2023-05-08T13:30:37;99280.75;;;11.45;42.83
40918;BME280;26644;50.248;19.032;2023-05-08T13:33:43;99287.41;;;11.49;42.97
40918;BME280;26644;50.248;19.032;2023-05-08T13:36:48;99279.78;;;11.61;41.32
40918;BME280;26644;50.248;19.032;2023-05-08T13:39:57;99284.47;;;11.66;41.15
40918;BME280;26644;50.248;19.032;2023-05-08T13:43:01;99276.25;;;11.71;40.73
40918;BME280;26644;50.248;19.032;2023-05-08T13:46:07;99277.00;;;11.56;40.28
40918;BME280;26644;50.248;19.032;2023-05-08T13:49:11;99263.50;;;11.55;41.12
40918;BME280;26644;50.248;19.032;2023-05-08T13:52:19;99271.38;;;11.84;41.53
40918;BME280;26644;50.248;19.032;2023-05-08T13:55:26;99272.22;;;11.89;41.44
40918;BME280;26644;50.248;19.032;2023-05-08T13:58:32;99269.19;;;11.86;41.86
40918;BME280;26644;50.248;19.032;2023-05-08T14:01:37;99270.22;;;11.69;42.67
40918;BME280;26644;50.248;19.032;2023-05-08T14:04:42;99284.66;;;11.49;43.46
40918;BME280;26644;50.248;19.032;2023-05-08T14:07:47;99265.69;;;11.53;43.61
40918;BME280;26644;50.248;19.032;2023-05-08T14:10:55;99283.41;;;11.72;43.09
40918;BME280;26644;50.248;19.032;2023-05-08T14:14:00;99282.56;;;11.67;43.26
40918;BME280;26644;50.248;19.032;2023-05-08T14:17:06;99256.31;;;11.49;42.25
40918;BME280;26644;50.248;19.032;2023-05-08T14:20:11;99255.22;;;11.50;41.69
40918;BME280;26644;50.248;19.032;2023-05-08T14:23:17;99279.66;;;11.46;41.70
40918;BME280;26644;50.248;19.032;2023-05-08T14:26:24;99259.72;;;11.61;42.06
40918;BME280;26644;50.248;19.032;2023-05-08T14:29:30;99261.06;;;11.64;42.23
40918;BME280;26644;50.248;19.032;2023-05-08T14:32:35;99281.44;;;11.63;42.39
40918;BME280;26644;50.248;19.032;2023-05-08T14:35:40;99256.56;;;11.42;42.02
40918;BME280;26644;50.248;19.032;2023-05-08T14:38:46;99265.41;;;11.54;42.32
40918;BME280;26644;50.248;19.032;2023-05-08T14:41:54;99277.84;;;11.62;42.49
40918;BME280;26644;50.248;19.032;2023-05-08T14:44:59;99272.03;;;11.53;41.16
40918;BME280;26644;50.248;19.032;2023-05-08T14:48:05;99267.16;;;11.66;41.58
40918;BME280;26644;50.248;19.032;2023-05-08T14:51:10;99268.56;;;11.73;41.78
40918;BME280;26644;50.248;19.032;2023-05-08T14:54:16;99261.41;;;11.72;41.85
40918;BME280;26644;50.248;19.032;2023-05-08T14:57:23;99272.75;;;11.81;41.87
40918;BME280;26644;50.248;19.032;2023-05-08T15:00:29;99270.22;;;11.69;42.27
40918;BME280;26644;50.248;19.032;2023-05-08T15:03:34;99287.38;;;11.44;41.50
40918;BME280;26644;50.248;19.032;2023-05-08T15:06:39;99277.69;;;11.36;42.63
40918;BME280;26644;50.248;19.032;2023-05-08T15:09:44;99272.19;;;11.36;42.58
40918;BME280;26644;50.248;19.032;2023-05-08T15:12:53;99279.91;;;11.39;42.84
40918;BME280;26644;50.248;19.032;2023-05-08T15:15:57;99257.59;;;11.36;42.72
40918;BME280;26644;50.248;19.032;2023-05-08T15:19:03;99266.31;;;11.22;42.20
40918;BME280;26644;50.248;19.032;2023-05-08T15:22:09;99266.97;;;11.02;42.91
40918;BME280;26644;50.248;19.032;2023-05-08T15:25:15;99263.41;;;11.02;43.20
40918;BME280;26644;50.248;19.032;2023-05-08T15:28:22;99261.31;;;11.14;43.10
40918;BME280;26644;50.248;19.032;2023-05-08T15:31:28;99248.97;;;11.17;43.13
40918;BME280;26644;50.248;19.032;2023-05-08T15:34:32;99252.38;;;11.34;42.93
40918;BME280;26644;50.248;19.032;2023-05-08T15:37:38;99243.63;;;11.37;42.41
40918;BME280;26644;50.248;19.032;2023-05-08T15:40:43;99257.81;;;11.29;42.90
40918;BME280;26644;50.248;19.032;2023-05-08T15:43:51;99253.25;;;11.40;43.01
40918;BME280;26644;50.248;19.032;2023-05-08T15:46:56;99245.84;;;11.45;43.19
40918;BME280;26644;50.248;19.032;2023-05-08T15:50:02;99251.66;;;11.54;43.34
40918;BME280;26644;50.248;19.032;2023-05-08T15:53:07;99256.38;;;11.59;43.13
40918;BME280;26644;50.248;19.032;2023-05-08T15:56:13;99256.13;;;11.60;43.04
40918;BME280;26644;50.248;19.032;2023-05-08T15:59:20;99252.03;;;11.68;43.32
40918;BME280;26644;50.248;19.032;2023-05-08T16:02:26;99254.22;;;11.66;42.95
40918;BME280;26644;50.248;19.032;2023-05-08T16:05:30;99249.53;;;11.61;43.08
40918;BME280;26644;50.248;19.032;2023-05-08T16:08:36;99263.25;;;11.56;43.64
40918;BME280;26644;50.248;19.032;2023-05-08T16:11:41;99237.03;;;11.43;44.20
40918;BME280;26644;50.248;19.032;2023-05-08T16:14:49;99247.19;;;11.38;44.54
40918;BME280;26644;50.248;19.032;2023-05-08T16:17:54;99251.78;;;11.27;45.04
40918;BME280;26644;50.248;19.032;2023-05-08T16:21:00;99241.03;;;11.20;45.20
40918;BME280;26644;50.248;19.032;2023-05-08T16:24:05;99239.59;;;11.13;45.44
40918;BME280;26644;50.248;19.032;2023-05-08T16:27:11;99243.16;;;11.13;45.26
40918;BME280;26644;50.248;19.032;2023-05-08T16:30:18;99241.16;;;11.03;45.59
40918;BME280;26644;50.248;19.032;2023-05-08T16:33:24;99240.06;;;11.04;45.00
40918;BME280;26644;50.248;19.032;2023-05-08T16:36:29;99242.56;;;11.06;45.05
40918;BME280;26644;50.248;19.032;2023-05-08T16:39:34;99248.81;;;10.96;44.15
40918;BME280;26644;50.248;19.032;2023-05-08T16:42:39;99241.38;;;10.97;43.91
40918;BME280;26644;50.248;19.032;2023-05-08T16:45:49;99242.91;;;11.15;43.78